Change the Weather History Date:

Sunday, October 13, 2013

  Actual Average (KMIE) Record (KMIE)
Temperature  
Mean Temperature 58 °F 55 °F  
Max Temperature 68 °F 65 °F 82 °F (1976)
Min Temperature 47 °F 44 °F 22 °F (1988)
Degree Days  
Heating Degree Days 8 11  
Month to date heating degree days 120  
Since 1 July heating degree days 221  
Cooling Degree Days 0 1  
Month to date cooling degree days 13  
Year to date cooling degree days 952  
Growing Degree Days 8 (Base 50)    
Moisture  
Dew Point 43 °F    
Average Humidity 57    
Maximum Humidity 93    
Minimum Humidity 27    
Precipitation  
Precipitation 0.00 in 0.09 in 1.20 in (1983)
Month to date precipitation 1.29  
Year to date precipitation 32.16  
Sea Level Pressure  
Sea Level Pressure 30.29 in    
Wind  
Wind Speed 6 mph (North)    
Max Wind Speed 10 mph    
Max Gust Speed 17 mph    
Visibility 10 miles    
Events      
T = Trace of Precipitation, MM = Missing Value Source: NWS Daily Summary

Daily Weather History Graph

Daily Weather History Graph

Search for Another Location

Airport or City:

Trip Planner

Search our weather history database for the weather conditions in past years. The results will help you decide how hot, cold, wet, or windy it might be!

Date:

Astronomy

Oct. 13, 2013 Rise Set
Actual Time 7:51 AM EDT 7:05 PM EDT
Civil Twilight 7:24 AM EDT 7:32 PM EDT
Nautical Twilight 6:52 AM EDT 8:04 PM EDT
Astronomical Twilight 6:21 AM EDT 8:35 PM EDT
Moon 3:57 PM EDT (10/13) 1:59 AM EDT (10/13)
Length of Visible Light 12h 08m
Length of Day
11h 13m
Waxing Gibbous, 69% of the Moon is Illuminated
Oct 13
Waxing Gibbous
Oct 18
Full
Oct 26
Last Quarter
Nov 3
New
Nov 10
First Quarter

Hourly Weather History & Observations

Time (EDT) Temp. Dew Point Humidity Pressure Visibility Wind Dir Wind Speed Gust Speed Precip Events Conditions
12:15 AM 64.2 °F 55.9 °F 74% 30.14 in 10.0 mi WNW 4.6 mph - N/A   Overcast
12:35 AM 64.9 °F 56.7 °F 74% 30.14 in 10.0 mi NW 5.8 mph - N/A   Overcast
12:55 AM 65.5 °F 57.6 °F 76% 30.14 in 7.0 mi NW 6.9 mph - N/A   Overcast
1:15 AM 65.3 °F 57.9 °F 77% 30.15 in 10.0 mi NNW 5.8 mph - N/A   Overcast
1:35 AM 64.9 °F 58.1 °F 78% 30.16 in 7.0 mi NW 8.1 mph - N/A   Overcast
1:55 AM 64.8 °F 57.6 °F 77% 30.16 in 7.0 mi NNW 6.9 mph - N/A   Overcast
2:15 AM 64.6 °F 56.5 °F 75% 30.16 in 10.0 mi NNW 9.2 mph - N/A   Overcast
2:35 AM 63.9 °F 56.1 °F 76% 30.18 in 10.0 mi NNW 6.9 mph - N/A   Overcast
2:55 AM 63.1 °F 55.0 °F 75% 30.19 in 10.0 mi NNW 4.6 mph - N/A   Overcast
3:15 AM 62.4 °F 53.8 °F 73% 30.19 in 10.0 mi NNW 5.8 mph - N/A   Overcast
3:35 AM 61.7 °F 52.2 °F 71% 30.20 in 10.0 mi NNW 6.9 mph - N/A   Mostly Cloudy
3:55 AM 61.0 °F 51.1 °F 70% 30.20 in 10.0 mi NNW 6.9 mph - N/A   Mostly Cloudy
4:15 AM 60.1 °F 49.6 °F 68% 30.21 in 10.0 mi North 8.1 mph - N/A   Scattered Clouds
4:35 AM 59.0 °F 48.7 °F 69% 30.21 in 10.0 mi North 6.9 mph - N/A   Clear
4:55 AM 57.9 °F 48.6 °F 71% 30.22 in 10.0 mi North 5.8 mph - N/A   Clear
5:15 AM 57.0 °F 48.2 °F 72% 30.23 in 10.0 mi North 5.8 mph - N/A   Clear
5:35 AM 55.9 °F 48.0 °F 75% 30.24 in 10.0 mi Calm Calm - N/A   Clear
5:55 AM 54.7 °F 47.7 °F 77% 30.24 in 10.0 mi North 3.5 mph - N/A   Clear
6:15 AM 53.8 °F 47.3 °F 79% 30.25 in 10.0 mi Calm Calm - N/A   Clear
6:35 AM 53.1 °F 47.1 °F 80% 30.26 in 10.0 mi Calm Calm - N/A   Clear
6:55 AM 51.4 °F 46.2 °F 82% 30.27 in 10.0 mi Calm Calm - N/A   Clear
7:15 AM 49.5 °F 46.4 °F 89% 30.27 in 10.0 mi Calm Calm - N/A   Clear
7:35 AM 48.7 °F 46.4 °F 92% 30.28 in 10.0 mi NW 3.5 mph - N/A   Clear
7:55 AM 48.7 °F 46.4 °F 92% 30.28 in 10.0 mi NNW 3.5 mph - N/A   Clear
8:15 AM 47.7 °F 45.7 °F 93% 30.29 in 10.0 mi Calm Calm - N/A   Clear
8:35 AM 49.1 °F 46.9 °F 92% 30.29 in 10.0 mi North 3.5 mph - N/A   Clear
8:55 AM 51.8 °F 48.7 °F 89% 30.30 in 7.0 mi North 3.5 mph - N/A   Clear
9:15 AM 54.0 °F 48.2 °F 81% 30.31 in 7.0 mi North 5.8 mph - N/A   Clear
9:35 AM 55.9 °F 46.8 °F 71% 30.31 in 10.0 mi North 6.9 mph - N/A   Clear
9:55 AM 58.1 °F 45.7 °F 63% 30.32 in 10.0 mi North 8.1 mph - N/A   Clear
10:15 AM 59.7 °F 44.2 °F 57% 30.33 in 10.0 mi North 8.1 mph - N/A   Clear
10:35 AM 61.0 °F 42.3 °F 50% 30.34 in 10.0 mi NNE 10.4 mph - N/A   Clear
10:55 AM 62.4 °F 41.4 °F 46% 30.34 in 10.0 mi North 6.9 mph - N/A   Clear
11:15 AM 63.7 °F 39.2 °F 41% 30.34 in 10.0 mi North 10.4 mph 17.3 mph N/A   Clear
11:55 AM 64.8 °F 36.1 °F 35% 30.34 in 10.0 mi NE 5.8 mph - N/A   Clear
12:15 PM 65.1 °F 35.8 °F 34% 30.34 in 10.0 mi NNE 8.1 mph - N/A   Clear
12:35 PM 65.3 °F 35.8 °F 34% 30.34 in 10.0 mi NNW 6.9 mph - N/A   Clear
12:55 PM 65.7 °F 36.9 °F 35% 30.34 in 10.0 mi NNE 4.6 mph - N/A   Clear
1:15 PM 66.2 °F 36.5 °F 33% 30.34 in 10.0 mi North 8.1 mph - N/A   Clear
1:35 PM 66.7 °F 36.1 °F 32% 30.33 in 10.0 mi NNE 6.9 mph - N/A   Clear
1:55 PM 67.1 °F 34.9 °F 30% 30.32 in 10.0 mi North 6.9 mph - N/A   Clear
2:15 PM 67.8 °F 34.2 °F 29% 30.32 in 10.0 mi NNW 10.4 mph - N/A   Clear
2:35 PM 68.4 °F 34.0 °F 28% 30.31 in 10.0 mi North 10.4 mph - N/A   Clear
2:55 PM 68.0 °F 33.1 °F 27% 30.31 in 10.0 mi NNW 9.2 mph - N/A   Clear
3:15 PM 68.5 °F 34.0 °F 28% 30.31 in 10.0 mi NNW 3.5 mph - N/A   Clear
3:35 PM 68.7 °F 34.5 °F 28% 30.31 in 10.0 mi North 9.2 mph - N/A   Clear
3:55 PM 68.9 °F 35.1 °F 29% 30.31 in 10.0 mi North 10.4 mph - N/A   Clear
4:15 PM 68.9 °F 35.6 °F 29% 30.30 in 10.0 mi North 5.8 mph - N/A   Clear
4:35 PM 68.7 °F 35.2 °F 29% 30.30 in 10.0 mi NNW 5.8 mph - N/A   Clear
4:55 PM 68.5 °F 34.7 °F 29% 30.30 in 7.0 mi NW 10.4 mph - N/A   Clear
5:15 PM 68.5 °F 34.7 °F 29% 30.30 in 10.0 mi North 8.1 mph - N/A   Clear
5:35 PM 68.0 °F 34.2 °F 29% 30.30 in 10.0 mi North 3.5 mph - N/A   Clear
5:55 PM 67.3 °F 34.9 °F 30% 30.30 in 10.0 mi NNW 4.6 mph - N/A   Clear
6:15 PM 66.2 °F 36.3 °F 33% 30.30 in 10.0 mi North 4.6 mph - N/A   Clear
6:35 PM 65.1 °F 37.6 °F 36% 30.31 in 10.0 mi NNW 3.5 mph - N/A   Clear
6:55 PM 63.3 °F 38.7 °F 40% 30.31 in 10.0 mi Calm Calm - N/A   Clear
7:15 PM 61.3 °F 39.6 °F 45% 30.32 in 10.0 mi NNW 4.6 mph - N/A   Clear
7:35 PM 60.6 °F 39.6 °F 46% 30.32 in 10.0 mi North 6.9 mph - N/A   Clear
7:55 PM 59.5 °F 38.3 °F 45% 30.33 in 10.0 mi North 8.1 mph - N/A   Clear
8:15 PM 57.9 °F 38.3 °F 48% 30.33 in 10.0 mi North 6.9 mph - N/A   Clear
8:35 PM 56.7 °F 38.1 °F 50% 30.34 in 10.0 mi North 9.2 mph - N/A   Clear
8:55 PM 55.8 °F 37.8 °F 51% 30.35 in 10.0 mi North 4.6 mph - N/A   Clear
9:15 PM 54.1 °F 38.3 °F 55% 30.35 in 10.0 mi North 5.8 mph - N/A   Clear
9:35 PM 52.9 °F 38.5 °F 58% 30.35 in 10.0 mi North 5.8 mph - N/A   Clear
9:55 PM 52.5 °F 38.1 °F 58% 30.36 in 10.0 mi North 8.1 mph - N/A   Clear
10:15 PM 51.8 °F 38.1 °F 60% 30.36 in 10.0 mi North 6.9 mph - N/A   Clear
10:35 PM 50.7 °F 38.1 °F 62% 30.36 in 10.0 mi North 6.9 mph - N/A   Clear
10:55 PM 49.8 °F 38.3 °F 65% 30.36 in 10.0 mi North 5.8 mph - N/A   Clear
11:15 PM 49.1 °F 38.5 °F 67% 30.36 in 10.0 mi North 4.6 mph - N/A   Clear
11:35 PM 47.8 °F 38.7 °F 70% 30.36 in 10.0 mi North 4.6 mph - N/A   Clear
11:55 PM 47.1 °F 38.8 °F 73% 30.37 in 10.0 mi North 4.6 mph - N/A   Clear